Terminal Aerodrome Forecast
Issued by NWS Wakefield, VA

Home | Current Version | Previous Version | Text Only | Print | Product List | Glossary On
Versions: 1 2 3 4 5 6 7 8 9 10 11 12 13 14 15 16 17 18 19 20 21 22 23 24 25 26 27 28
599
FTUS41 KAKQ 311153 AAA
TAFRIC
TAF AMD
KRIC 311153Z 3112/0112 03005KT P6SM SCT004 BKN040
      TEMPO 3112/3114 BKN004
     FM311600 07007KT P6SM -SHRA BKN040 BKN100
     FM010200 11003KT P6SM SCT030 BKN100 OVC250
     FM010600 03003KT 4SM BR SCT003 BKN010 OVC100=

USA.gov is the U.S. government's official web portal to all federal, state and local government web resources and services.